Time;durP1;ratioP1;P1;durP2;ratioP2;P2;SDS_P1;SDS_P2;PMS_P1;PMS_P2;Temp;Humidity;BMP_temperature;BMP_pressure;BME280_temperature;BME280_humidity;BME280_pressure;Samples;Min_cycle;Max_cycle;Signal;HPM_P1;HPM_P2
2023/08/01 00:00:34;;;;;;;2.13;1.92;;;;;;;15.01;100.00;99335.41;5016111;28;20070;-81
2023/08/01 00:02:59;;;;;;;3.20;2.25;;;;;;;15.03;100.00;99327.94;5011975;28;20030;-81
2023/08/01 00:05:24;;;;;;;2.40;2.03;;;;;;;14.93;100.00;99316.88;5012526;28;20037;-81
2023/08/01 00:07:50;;;;;;;2.40;2.10;;;;;;;15.01;100.00;99313.06;5009044;28;20034;-81
2023/08/01 00:10:16;;;;;;;3.33;2.50;;;;;;;15.05;100.00;99317.75;5013259;28;20278;-81
2023/08/01 00:12:42;;;;;;;3.58;2.92;;;;;;;15.02;100.00;99304.78;5014680;28;20034;-81
2023/08/01 00:15:08;;;;;;;6.20;3.50;;;;;;;15.04;100.00;99305.38;5009427;28;20251;-81
2023/08/01 00:17:34;;;;;;;3.95;3.45;;;;;;;15.08;100.00;99308.44;5017975;28;20028;-81
2023/08/01 00:20:01;;;;;;;4.13;3.20;;;;;;;15.07;100.00;99298.72;5026033;28;20113;-81
2023/08/01 00:22:26;;;;;;;;;;;;;;;15.08;100.00;99301.19;5026506;28;20045;-81
2023/08/01 00:24:51;;;;;;;;;;;;;;;15.10;100.00;99304.47;5011071;28;19959;-81
2023/08/01 00:27:16;;;;;;;5.13;3.63;;;;;;;15.12;100.00;99296.97;5026150;28;19921;-81
2023/08/01 00:29:42;;;;;;;4.80;4.07;;;;;;;15.17;100.00;99301.66;5009426;28;20021;-81
2023/08/01 00:32:07;;;;;;;5.97;5.00;;;;;;;15.19;100.00;99297.72;5021853;28;20034;-80
2023/08/01 00:34:32;;;;;;;6.20;4.33;;;;;;;15.23;100.00;99287.31;5015030;28;20030;-81
2023/08/01 00:36:58;;;;;;;4.43;4.00;;;;;;;15.31;100.00;99294.25;5020269;22;20065;-81
2023/08/01 00:39:23;;;;;;;9.40;5.17;;;;;;;15.32;100.00;99283.28;4990724;28;20437;-82
2023/08/01 00:41:49;;;;;;;7.80;6.37;;;;;;;15.36;100.00;99283.66;4999420;28;20033;-81
2023/08/01 00:44:14;;;;;;;8.53;5.90;;;;;;;15.37;100.00;99286.09;5009904;28;20045;-82
2023/08/01 00:46:39;;;;;;;9.10;6.50;;;;;;;15.35;100.00;99284.69;5019760;28;20036;-81
2023/08/01 00:49:05;;;;;;;9.87;6.67;;;;;;;15.33;100.00;99268.75;4997832;28;20422;-81
2023/08/01 00:51:32;;;;;;;7.85;5.93;;;;;;;15.33;100.00;99266.06;4992573;28;20122;-82
2023/08/01 00:53:57;;;;;;;10.95;6.72;;;;;;;15.37;100.00;99274.50;4990645;28;20117;-82
2023/08/01 00:56:23;;;;;;;8.90;5.75;;;;;;;15.32;100.00;99267.13;5002829;28;20438;-81
2023/08/01 00:58:48;;;;;;;9.27;6.07;;;;;;;15.32;100.00;99269.81;4999045;28;20026;-82
2023/08/01 01:01:14;;;;;;;10.27;7.40;;;;;;;15.28;100.00;99259.75;5003557;28;20120;-82
2023/08/01 01:03:39;;;;;;;11.83;7.37;;;;;;;15.24;100.00;99258.56;5010997;28;20030;-82
2023/08/01 01:06:32;;;;;;;11.70;7.37;;;;;;;15.29;100.00;99256.84;5009955;28;20029;-82
2023/08/01 01:08:57;;;;;;;14.18;7.57;;;;;;;15.27;100.00;99256.25;4986365;28;20418;-82
2023/08/01 01:11:22;;;;;;;12.67;7.87;;;;;;;15.25;100.00;99242.22;4996918;28;20022;-82
2023/08/01 01:13:48;;;;;;;15.87;8.80;;;;;;;15.24;100.00;99245.97;4996727;28;20062;-82
2023/08/01 01:16:13;;;;;;;12.10;8.60;;;;;;;15.23;100.00;99252.38;5012602;28;20033;-82
2023/08/01 01:18:40;;;;;;;14.00;8.05;;;;;;;15.28;100.00;99254.38;5002124;28;20033;-82
2023/08/01 01:21:06;;;;;;;12.73;8.57;;;;;;;15.24;100.00;99248.66;5007786;28;20487;-83
2023/08/01 01:23:33;;;;;;;12.57;8.83;;;;;;;15.29;100.00;99248.78;5003137;28;20019;-83
2023/08/01 01:25:59;;;;;;;14.23;9.40;;;;;;;15.26;100.00;99238.47;4991502;28;20042;-83
2023/08/01 01:28:26;;;;;;;13.02;8.68;;;;;;;15.28;100.00;99235.56;5006196;28;20029;-83
2023/08/01 01:30:53;;;;;;;14.82;10.00;;;;;;;15.20;100.00;99226.78;4995103;28;20062;-83
2023/08/01 01:33:18;;;;;;;17.33;9.70;;;;;;;15.20;100.00;99232.16;4993705;28;20022;-83
2023/08/01 01:35:44;;;;;;;15.75;8.82;;;;;;;15.20;100.00;99237.53;4991933;28;20056;-84
2023/08/01 01:38:09;;;;;;;16.60;9.00;;;;;;;15.19;100.00;99225.16;4995851;28;20026;-82
2023/08/01 01:40:36;;;;;;;20.95;9.80;;;;;;;15.24;100.00;99237.06;5026921;28;20726;-83
2023/08/01 01:43:02;;;;;;;12.73;9.07;;;;;;;15.23;100.00;99227.38;5011667;28;20030;-82
2023/08/01 01:45:28;;;;;;;15.18;8.70;;;;;;;15.22;100.00;99220.34;4991309;28;20109;-83
2023/08/01 01:47:53;;;;;;;14.32;9.48;;;;;;;15.24;100.00;99215.56;4990353;28;20022;-83
2023/08/01 01:50:19;;;;;;;12.50;8.10;;;;;;;15.17;100.00;99219.19;5001784;28;20899;-82
2023/08/01 01:52:45;;;;;;;13.82;9.18;;;;;;;15.08;100.00;99212.50;4986401;28;20044;-81
2023/08/01 01:55:10;;;;;;;14.90;9.52;;;;;;;15.14;100.00;99213.44;4999393;28;20030;-83
2023/08/01 01:57:37;;;;;;;14.35;9.18;;;;;;;15.19;100.00;99211.72;5015698;28;20093;-82
2023/08/01 02:00:04;;;;;;;15.95;9.07;;;;;;;15.20;100.00;99209.84;4978953;28;20050;-82
2023/08/01 02:02:38;;;;;;;13.77;8.85;;;;;;;15.12;100.00;99200.22;5007382;28;20038;-83
2023/08/01 02:05:04;;;;;;;13.98;7.40;;;;;;;15.08;100.00;99199.06;5009228;28;20037;-82
2023/08/01 02:07:30;;;;;;;12.13;7.40;;;;;;;15.11;100.00;99197.78;4992833;28;20023;-81
2023/08/01 02:09:55;;;;;;;10.57;7.88;;;;;;;15.05;100.00;99196.81;4984124;28;20042;-82
2023/08/01 02:12:21;;;;;;;13.30;6.77;;;;;;;14.98;100.00;99199.63;5006090;28;20043;-81
2023/08/01 02:14:46;;;;;;;13.35;7.50;;;;;;;14.97;100.00;99183.72;5028868;28;20474;-82
2023/08/01 02:17:12;;;;;;;10.30;6.83;;;;;;;14.96;100.00;99182.06;5022914;28;20415;-82
2023/08/01 02:19:37;;;;;;;15.07;7.43;;;;;;;14.87;100.00;99178.06;4997421;28;20053;-82
2023/08/01 02:22:02;;;;;;;11.97;7.50;;;;;;;14.87;100.00;99178.06;4998736;28;20034;-82
2023/08/01 02:24:28;;;;;;;11.57;6.53;;;;;;;14.91;100.00;99173.88;5007900;28;20022;-81
2023/08/01 02:26:54;;;;;;;11.95;5.85;;;;;;;14.87;100.00;99162.78;5029407;28;20951;-82
2023/08/01 02:29:20;;;;;;;12.25;6.93;;;;;;;14.76;100.00;99160.84;5018395;28;20030;-82
2023/08/01 02:31:45;;;;;;;10.30;6.97;;;;;;;14.80;100.00;99155.84;4999201;28;20035;-82
2023/08/01 02:34:11;;;;;;;10.15;6.20;;;;;;;14.75;100.00;99143.13;5003424;28;20022;-82
2023/08/01 02:36:37;;;;;;;10.80;6.37;;;;;;;14.78;100.00;99148.84;4979600;28;20045;-82
2023/08/01 02:39:02;;;;;;;14.17;7.20;;;;;;;14.70;100.00;99156.38;4999854;28;20034;-83
2023/08/01 02:41:27;;;;;;;13.00;7.27;;;;;;;14.67;100.00;99146.91;4995507;28;20034;-83
2023/08/01 02:43:53;;;;;;;10.83;6.40;;;;;;;14.64;100.00;99141.19;5000509;28;20027;-82
2023/08/01 02:46:18;;;;;;;12.43;6.97;;;;;;;14.65;100.00;99137.47;5013479;28;20041;-82
2023/08/01 02:48:44;;;;;;;10.47;6.43;;;;;;;14.66;100.00;99139.94;4999759;28;20339;-82
2023/08/01 02:51:09;;;;;;;9.40;6.10;;;;;;;14.65;100.00;99126.72;4997311;28;20030;-81
2023/08/01 02:53:35;;;;;;;11.07;6.57;;;;;;;14.67;100.00;99127.31;4993490;28;20030;-83
2023/08/01 02:56:01;;;;;;;13.23;7.55;;;;;;;14.68;100.00;99135.16;4995784;28;20058;-83
2023/08/01 02:58:26;;;;;;;10.40;5.75;;;;;;;14.63;100.00;99118.88;4995677;28;20050;-81
2023/08/01 03:00:52;;;;;;;10.95;6.78;;;;;;;14.65;100.00;99115.97;5005706;28;20137;-83
2023/08/01 03:03:17;;;;;;;9.97;5.93;;;;;;;14.69;100.00;99120.66;4999047;28;20022;-82
2023/08/01 03:05:43;;;;;;;5.90;4.30;;;;;;;14.62;100.00;99108.38;5009916;28;20041;-82
2023/08/01 03:08:08;;;;;;;9.57;6.57;;;;;;;14.58;100.00;99097.25;5009661;28;20462;-82
2023/08/01 03:10:34;;;;;;;10.80;5.78;;;;;;;14.62;100.00;99109.19;5002755;28;20050;-82
2023/08/01 03:12:59;;;;;;;10.10;6.03;;;;;;;14.62;100.00;99095.75;4978520;28;20078;-83
2023/08/01 03:15:24;;;;;;;9.67;5.83;;;;;;;14.55;100.00;99078.94;5010219;28;20210;-82
2023/08/01 03:17:50;;;;;;;11.83;6.63;;;;;;;14.65;100.00;99105.22;4998845;28;20026;-83
2023/08/01 03:20:15;;;;;;;10.97;6.87;;;;;;;14.64;100.00;99099.03;4996289;28;20110;-83
2023/08/01 03:22:41;;;;;;;15.33;7.43;;;;;;;14.54;100.00;99096.91;5002444;28;20106;-82
2023/08/01 03:25:07;;;;;;;12.25;7.95;;;;;;;14.56;100.00;99091.28;4997045;28;20030;-83
2023/08/01 03:27:33;;;;;;;14.60;7.68;;;;;;;14.54;100.00;99096.91;4981923;28;20090;-82
2023/08/01 03:29:59;;;;;;;13.27;6.78;;;;;;;14.55;100.00;99092.34;5000809;28;20026;-82
2023/08/01 03:32:25;;;;;;;;;;;;;;;14.58;100.00;99094.56;5012493;28;20047;-82
2023/08/01 03:34:50;;;;;;;;;;;;;;;14.57;100.00;99096.44;4977430;28;19921;-83
2023/08/01 03:37:16;;;;;;;14.17;8.67;;;;;;;14.54;100.00;99088.84;5010206;28;20294;-82
2023/08/01 03:39:42;;;;;;;18.67;10.73;;;;;;;14.57;100.00;99087.56;5007113;28;20506;-82
2023/08/01 03:42:07;;;;;;;15.23;8.13;;;;;;;14.60;100.00;99089.78;4997421;28;20030;-83
2023/08/01 03:44:33;;;;;;;15.60;9.73;;;;;;;14.59;100.00;99085.50;4996779;28;20360;-82
2023/08/01 03:46:59;;;;;;;14.90;10.50;;;;;;;14.62;100.00;99081.53;4995560;28;20035;-82
2023/08/01 03:49:24;;;;;;;18.15;10.20;;;;;;;14.59;100.00;99084.69;5011230;28;20755;-83
2023/08/01 03:51:50;;;;;;;18.07;10.13;;;;;;;14.60;100.00;99092.47;5000004;28;20573;-83
2023/08/01 03:54:15;;;;;;;18.80;10.03;;;;;;;14.58;100.00;99083.84;5004866;28;20018;-80
2023/08/01 03:56:43;;;;;;;16.60;9.13;;;;;;;14.61;100.00;99077.19;4998387;28;20026;-82
2023/08/01 03:59:15;;;;;;;20.92;11.02;;;;;;;14.54;100.00;99077.31;4996799;28;20073;-82
2023/08/01 04:01:41;;;;;;;18.92;10.48;;;;;;;14.57;100.00;99069.59;5007201;28;20038;-83
2023/08/01 04:04:08;;;;;;;22.65;11.02;;;;;;;14.59;100.00;99074.75;4997446;28;20018;-80
2023/08/01 04:06:33;;;;;;;19.17;11.15;;;;;;;14.57;100.00;99058.84;4992027;28;20113;-82
2023/08/01 04:08:59;;;;;;;21.60;12.40;;;;;;;14.62;100.00;99078.84;5006075;28;20061;-82
2023/08/01 04:11:26;;;;;;;20.38;11.52;;;;;;;14.60;100.00;99080.94;5005658;28;20041;-81
2023/08/01 04:13:52;;;;;;;18.90;11.60;;;;;;;14.68;100.00;99089.47;4993649;28;20038;-82
2023/08/01 04:16:17;;;;;;;23.00;12.75;;;;;;;14.66;100.00;99080.84;4993383;28;20038;-82
2023/08/01 04:18:42;;;;;;;22.30;12.67;;;;;;;14.65;100.00;99078.38;4991395;28;20046;-82
2023/08/01 04:21:08;;;;;;;22.20;14.17;;;;;;;14.68;100.00;99086.81;4993537;28;20032;-81
2023/08/01 04:23:33;;;;;;;26.88;15.05;;;;;;;14.74;100.00;99085.06;4981147;28;20503;-82
2023/08/01 04:25:59;;;;;;;19.13;12.40;;;;;;;14.81;100.00;99079.59;4990733;28;20066;-82
2023/08/01 04:28:24;;;;;;;29.13;14.32;;;;;;;14.77;100.00;99063.09;4994695;28;20026;-81
2023/08/01 04:30:51;;;;;;;23.77;13.88;;;;;;;14.80;100.00;99064.50;4994393;28;20065;-81
2023/08/01 04:33:16;;;;;;;24.50;13.90;;;;;;;14.83;100.00;99066.75;4994853;28;20061;-81
2023/08/01 04:35:42;;;;;;;27.43;14.83;;;;;;;14.86;100.00;99066.25;5002263;28;20066;-81
2023/08/01 04:38:08;;;;;;;26.03;14.73;;;;;;;14.93;100.00;99064.28;4995803;28;20030;-82
2023/08/01 04:40:33;;;;;;;;;;;;;;;14.96;100.00;99061.97;5005695;28;20037;-82
2023/08/01 04:42:59;;;;;;;37.72;16.17;;;;;;;14.87;100.00;99065.22;4997570;28;19914;-82
2023/08/01 04:45:25;;;;;;;27.83;15.82;;;;;;;14.84;100.00;99049.56;5002126;28;20042;-82
2023/08/01 04:47:50;;;;;;;32.50;15.90;;;;;;;14.88;100.00;99056.09;4991203;28;20041;-82
2023/08/01 04:50:16;;;;;;;30.63;17.30;;;;;;;14.84;100.00;99055.75;5002777;28;20037;-82
2023/08/01 04:52:41;;;;;;;34.77;18.97;;;;;;;14.86;100.00;99063.56;4990446;28;20038;-81
2023/08/01 04:55:07;;;;;;;32.53;19.33;;;;;;;14.90;100.00;99065.56;4990447;28;20037;-82
2023/08/01 04:57:32;;;;;;;31.02;18.60;;;;;;;14.89;100.00;99057.72;4992644;28;20033;-81
2023/08/01 04:59:59;;;;;;;32.93;19.37;;;;;;;14.93;100.00;99059.72;4981153;28;20068;-81
2023/08/01 05:02:24;;;;;;;40.88;19.33;;;;;;;14.93;100.00;99059.72;5019859;28;20898;-82
2023/08/01 05:04:51;;;;;;;33.55;18.65;;;;;;;14.93;100.00;99066.97;5025157;28;20039;-80
2023/08/01 05:07:16;;;;;;;38.35;19.20;;;;;;;14.94;100.00;99065.94;5026238;28;20033;-81
2023/08/01 05:09:41;;;;;;;34.33;19.33;;;;;;;14.98;100.00;99064.41;5009408;28;20438;-81
2023/08/01 05:12:07;;;;;;;39.73;20.57;;;;;;;15.01;100.00;99061.28;5010708;28;20436;-81
2023/08/01 05:14:33;;;;;;;36.80;20.70;;;;;;;14.97;100.00;99057.41;4989664;28;20029;-81
2023/08/01 05:16:58;;;;;;;41.10;20.97;;;;;;;14.98;100.00;99051.81;4999529;28;20498;-81
2023/08/01 05:19:23;;;;;;;30.70;19.30;;;;;;;15.08;100.00;99066.53;5005582;28;20255;-82
2023/08/01 05:21:49;;;;;;;30.87;18.57;;;;;;;15.10;100.00;99054.50;4989504;28;20145;-81
2023/08/01 05:24:14;;;;;;;36.23;18.63;;;;;;;15.11;100.00;99047.25;5001146;28;20030;-81
2023/08/01 05:26:39;;;;;;;30.53;17.97;;;;;;;15.17;100.00;99055.22;4996060;28;20545;-80
2023/08/01 05:29:05;;;;;;;32.13;17.97;;;;;;;15.14;100.00;99044.91;4989215;28;20018;-81
2023/08/01 05:31:30;;;;;;;36.57;19.50;;;;;;;15.16;100.00;99052.75;4988635;28;20061;-82
2023/08/01 05:33:56;;;;;;;36.00;18.48;;;;;;;15.18;100.00;99051.44;4988901;28;20030;-81
2023/08/01 05:36:21;;;;;;;32.47;17.67;;;;;;;15.20;100.00;99043.97;4992782;28;20041;-81
2023/08/01 05:38:46;;;;;;;35.03;19.33;;;;;;;15.22;100.00;99041.06;4989684;28;20046;-80
2023/08/01 05:41:12;;;;;;;28.30;17.47;;;;;;;15.25;100.00;99045.97;4991765;28;20034;-82
2023/08/01 05:43:37;;;;;;;31.23;16.80;;;;;;;15.19;100.00;99041.50;5001046;28;20102;-81
2023/08/01 05:46:03;;;;;;;28.40;18.30;;;;;;;15.16;100.00;99042.00;5006122;28;20096;-81
2023/08/01 05:48:28;;;;;;;28.37;17.43;;;;;;;15.26;100.00;99042.22;5003055;28;20022;-81
2023/08/01 05:53:21;;;;;;;29.08;17.30;;;;;;;15.21;100.00;99047.47;5004965;28;20525;-82
2023/08/01 05:55:47;;;;;;;26.45;17.38;;;;;;;15.22;100.00;99035.69;4989713;28;20041;-79
2023/08/01 05:58:13;;;;;;;28.93;16.90;;;;;;;15.21;100.00;99034.03;5026941;28;20080;-79
2023/08/01 06:00:38;;;;;;;28.77;16.80;;;;;;;15.28;100.00;99039.28;4990054;28;20558;-83
2023/08/01 06:03:03;;;;;;;27.55;15.80;;;;;;;15.30;100.00;99027.25;5015074;28;20029;-82
2023/08/01 06:05:29;;;;;;;31.57;15.77;;;;;;;15.35;100.00;99029.25;5010197;28;20041;-79
2023/08/01 06:07:55;;;;;;;27.30;15.88;;;;;;;15.28;100.00;99015.91;5010272;28;20029;-80
2023/08/01 06:10:20;;;;;;;32.13;16.37;;;;;;;15.33;100.00;99021.41;5016155;28;20536;-80
2023/08/01 06:12:46;;;;;;;29.80;16.03;;;;;;;15.37;100.00;99019.06;5018273;28;20449;-81
2023/08/01 06:15:12;;;;;;;23.90;14.27;;;;;;;15.41;100.00;99010.28;5009617;28;20642;-81
2023/08/01 06:17:37;;;;;;;26.65;15.68;;;;;;;15.47;100.00;99008.53;5012250;28;20112;-79
2023/08/01 06:20:04;;;;;;;22.80;15.53;;;;;;;15.48;100.00;99006.66;5006640;28;20410;-80
2023/08/01 06:22:30;;;;;;;23.20;13.60;;;;;;;15.56;100.00;99003.59;5007923;28;20064;-82
2023/08/01 06:24:55;;;;;;;23.02;13.55;;;;;;;15.48;100.00;98993.22;4992283;28;20038;-78
2023/08/01 06:27:21;;;;;;;18.10;12.47;;;;;;;15.57;100.00;98989.91;4996967;28;20087;-79
2023/08/01 06:29:46;;;;;;;20.93;12.10;;;;;;;15.68;100.00;98980.16;5007287;28;20360;-79
2023/08/01 06:32:12;;;;;;;30.17;12.70;;;;;;;15.74;100.00;98978.44;4993090;28;20117;-82
2023/08/01 06:34:37;;;;;;;28.07;14.23;;;;;;;15.89;100.00;98970.66;5009236;28;20033;-78
2023/08/01 06:37:03;;;;;;;15.77;11.00;;;;;;;15.90;100.00;98963.41;5010654;28;20033;-78
2023/08/01 06:39:29;;;;;;;;;;;;;;;16.60;100.00;98970.25;5025856;28;20044;-81
2023/08/01 06:41:54;;;;;;;21.95;11.35;;;;;;;16.25;100.00;98934.44;5029024;28;19913;-82
2023/08/01 06:44:20;;;;;;;18.73;10.17;;;;;;;16.29;100.00;98918.59;5026446;28;20132;-80
2023/08/01 06:46:45;;;;;;;12.30;9.13;;;;;;;16.11;100.00;98905.34;5015824;28;20029;-80
2023/08/01 06:49:10;;;;;;;15.00;8.90;;;;;;;16.09;100.00;98899.44;5013311;28;20033;-79
2023/08/01 06:51:36;;;;;;;15.67;9.83;;;;;;;15.94;100.00;98883.81;5012737;28;20065;-77
2023/08/01 06:54:01;;;;;;;22.90;10.50;;;;;;;16.23;100.00;98898.03;5021705;28;20032;-80
2023/08/01 06:56:26;;;;;;;15.37;9.50;;;;;;;16.46;100.00;98887.09;5013653;28;20382;-78
2023/08/01 06:58:55;;;;;;;14.20;8.32;;;;;;;16.65;100.00;98892.22;5024132;28;20112;-81
2023/08/01 07:01:20;;;;;;;16.53;8.23;;;;;;;16.59;100.00;98888.63;5011837;28;20049;-78
2023/08/01 07:03:45;;;;;;;15.20;7.93;;;;;;;16.47;100.00;98885.22;4995451;28;20095;-80
2023/08/01 07:06:11;;;;;;;15.20;8.30;;;;;;;16.67;100.00;98890.09;5011806;28;20022;-79
2023/08/01 07:08:36;;;;;;;17.17;7.43;;;;;;;16.56;100.00;98885.63;5009039;28;20086;-78
2023/08/01 07:11:02;;;;;;;9.63;6.70;;;;;;;16.59;100.00;98887.81;5007689;28;20269;-80
2023/08/01 07:13:28;;;;;;;15.02;7.60;;;;;;;16.72;100.00;98898.25;5012467;28;20040;-77
2023/08/01 07:15:53;;;;;;;12.43;7.57;;;;;;;16.49;100.00;98909.22;5016739;28;20635;-77
2023/08/01 07:18:19;;;;;;;14.05;7.28;;;;;;;16.38;100.00;98919.81;5013507;28;20849;-79
2023/08/01 07:20:44;;;;;;;9.88;7.05;;;;;;;16.40;100.00;98917.69;5016613;28;20025;-83
2023/08/01 07:23:10;;;;;;;12.30;6.33;;;;;;;16.64;100.00;98912.94;5025800;28;20435;-82
2023/08/01 07:25:35;;;;;;;17.30;7.60;;;;;;;16.81;100.00;98915.66;5005791;28;20192;-82
2023/08/01 07:28:01;;;;;;;12.70;6.60;;;;;;;16.77;100.00;98925.25;5013119;28;20120;-81
2023/08/01 07:30:27;;;;;;;;;;;;;;;16.44;100.00;98928.81;5012432;28;20022;-79
2023/08/01 07:32:54;;;;;;;11.75;6.50;;;;;;;16.26;100.00;98943.31;5013870;28;19924;-82
2023/08/01 07:35:20;;;;;;;17.50;9.23;;;;;;;16.09;100.00;98958.66;5024483;28;20026;-81
2023/08/01 07:37:45;;;;;;;21.87;9.10;;;;;;;16.18;100.00;98967.97;5023781;28;20168;-81
2023/08/01 07:40:10;;;;;;;18.87;8.73;;;;;;;16.12;100.00;98980.50;5026305;28;20064;-82
2023/08/01 07:42:36;;;;;;;11.33;7.33;;;;;;;16.07;100.00;98988.50;5005666;28;20089;-81
2023/08/01 07:45:01;;;;;;;11.40;5.27;;;;;;;15.90;100.00;98993.03;5014537;28;20275;-80
2023/08/01 07:47:26;;;;;;;12.10;4.27;;;;;;;15.78;100.00;98980.41;4990919;28;20030;-80
2023/08/01 07:49:52;;;;;;;7.23;4.13;;;;;;;15.75;100.00;98975.50;5008029;28;20462;-80
2023/08/01 07:52:17;;;;;;;7.10;3.47;;;;;;;15.83;100.00;98993.16;5008296;28;20474;-80
2023/08/01 07:54:43;;;;;;;8.33;3.27;;;;;;;16.16;100.00;98997.81;5016503;28;20327;-81
2023/08/01 07:57:08;;;;;;;4.80;2.80;;;;;;;16.43;100.00;98998.00;5008152;28;20025;-80
2023/08/01 07:59:34;;;;;;;3.10;2.20;;;;;;;16.84;100.00;98996.00;5007005;28;20025;-81
2023/08/01 08:01:59;;;;;;;7.33;2.10;;;;;;;16.80;100.00;98977.88;5011005;28;20173;-80
2023/08/01 08:04:24;;;;;;;4.47;2.53;;;;;;;16.75;100.00;98962.41;5024721;28;20406;-80
2023/08/01 08:06:51;;;;;;;3.53;2.43;;;;;;;17.20;100.00;98979.53;5008156;28;20029;-80
2023/08/01 08:09:17;;;;;;;3.63;2.30;;;;;;;17.87;100.00;98973.94;5008475;28;20071;-81
2023/08/01 08:11:42;;;;;;;5.13;2.60;;;;;;;18.69;100.00;98968.47;5007995;28;20037;-81
2023/08/01 08:14:08;;;;;;;3.57;2.47;;;;;;;18.27;100.00;98944.88;4980355;28;20188;-81
2023/08/01 08:16:33;;;;;;;4.03;2.37;;;;;;;18.62;100.00;98957.06;5009277;28;20044;-81
2023/08/01 08:18:59;;;;;;;5.40;2.75;;;;;;;18.27;100.00;98931.38;5014352;28;20751;-81
2023/08/01 08:21:24;;;;;;;8.45;3.53;;;;;;;17.81;100.00;98942.53;5012852;28;20037;-80
2023/08/01 08:23:50;;;;;;;5.27;2.80;;;;;;;17.80;100.00;98923.88;5009402;28;20486;-80
2023/08/01 08:26:15;;;;;;;7.90;4.27;;;;;;;17.59;100.00;98914.75;5008082;28;20204;-81
2023/08/01 08:28:42;;;;;;;7.77;3.90;;;;;;;17.61;100.00;98943.09;5013098;28;20471;-81
2023/08/01 08:31:07;;;;;;;7.50;3.97;;;;;;;17.58;100.00;98943.59;5008206;28;20467;-80
2023/08/01 08:33:33;;;;;;;7.97;3.70;;;;;;;17.49;100.00;98954.03;5005173;28;20018;-80
2023/08/01 08:35:58;;;;;;;9.07;2.95;;;;;;;17.12;100.00;98929.56;5017478;28;20541;-81
2023/08/01 08:38:24;;;;;;;6.23;2.70;;;;;;;17.32;100.00;98944.34;4991135;28;20021;-81
2023/08/01 08:41:19;;;;;;;4.00;1.70;;;;;;;17.05;100.00;98924.34;5008498;28;20044;-80
2023/08/01 08:43:47;;;;;;;3.40;1.98;;;;;;;17.67;100.00;98925.88;5023828;28;20288;-81
2023/08/01 08:46:16;;;;;;;3.75;1.83;;;;;;;18.59;100.00;98925.13;5023632;28;20087;-80
2023/08/01 08:48:44;;;;;;;3.30;1.70;;;;;;;18.88;100.00;98864.25;5005828;28;20502;-79
2023/08/01 08:51:10;;;;;;;4.65;1.83;;;;;;;19.68;100.00;98866.72;5003196;28;20032;-85
2023/08/01 08:53:36;;;;;;;5.32;1.83;;;;;;;20.39;100.00;98828.03;5007140;28;20443;-80
2023/08/01 08:56:02;;;;;;;2.08;1.38;;;;;;;19.89;100.00;98774.69;5012046;28;20121;-81
2023/08/01 08:58:29;;;;;;;4.30;2.03;;;;;;;19.85;100.00;98741.13;5007938;28;20387;-82
2023/08/01 09:00:55;;;;;;;2.83;1.70;;;;;;;20.53;100.00;98714.38;5009128;28;20040;-81
2023/08/01 09:03:20;;;;;;;3.13;2.00;;;;;;;19.63;100.00;98646.63;5004313;28;20018;-81
2023/08/01 09:06:02;;;;;;;3.47;2.27;;;;;;;19.99;100.00;98715.09;4993598;28;20085;-78
2023/08/01 09:08:32;;;;;;;5.72;2.42;;;;;;;20.41;100.00;98648.88;5002266;28;20299;-79
2023/08/01 09:10:57;;;;;;;6.50;2.67;;;;;;;21.46;100.00;98748.13;5007598;28;20072;-81
2023/08/01 09:13:23;;;;;;;3.72;2.20;;;;;;;22.39;100.00;98663.06;5006988;28;20483;-78
2023/08/01 09:15:49;;;;;;;5.67;2.20;;;;;;;22.84;100.00;98557.44;5014769;28;20121;-79
2023/08/01 09:18:14;;;;;;;4.90;2.25;;;;;;;22.81;100.00;98460.91;5022992;28;20573;-82
2023/08/01 09:20:49;;;;;;;6.22;2.15;;;;;;;21.67;100.00;98211.13;5005469;28;20614;-81
2023/08/01 09:23:16;;;;;;;4.13;1.93;;;;;;;21.85;100.00;98383.31;5020007;28;20096;-79
2023/08/01 09:25:42;;;;;;;3.13;2.50;;;;;;;20.54;100.00;98368.28;5006773;28;20292;-80
2023/08/01 09:28:22;;;;;;;6.07;2.78;;;;;;;21.26;100.00;98476.88;5005649;28;20088;-79
2023/08/01 09:30:55;;;;;;;5.30;2.60;;;;;;;22.20;100.00;98461.88;4994314;28;20070;-80
2023/08/01 09:33:21;;;;;;;4.88;2.10;;;;;;;22.77;100.00;98256.69;4993559;28;20459;-80
2023/08/01 09:35:48;;;;;;;4.43;2.70;;;;;;;21.92;100.00;98285.97;5016516;28;20022;-79
2023/08/01 09:38:15;;;;;;;6.25;2.78;;;;;;;21.30;100.00;98222.81;5007294;28;20104;-83
2023/08/01 09:40:42;;;;;;;4.57;2.42;;;;;;;19.90;100.00;98391.78;5017527;28;20434;-80
2023/08/01 09:43:08;;;;;;;6.93;2.28;;;;;;;21.03;100.00;98586.97;4993885;28;20049;-80
2023/08/01 09:45:34;;;;;;;6.95;2.10;;;;;;;21.41;100.00;98343.72;5005721;28;20022;-80
2023/08/01 09:48:00;;;;;;;6.70;2.08;;;;;;;20.49;100.00;98355.59;5007319;28;20038;-80
2023/08/01 09:50:26;;;;;;;7.05;2.40;;;;;;;20.10;100.00;98361.06;5006899;28;20536;-79
2023/08/01 09:52:54;;;;;;;5.53;2.45;;;;;;;19.41;100.00;98515.16;5011584;28;20060;-79
2023/08/01 09:55:32;;;;;;;3.83;2.53;;;;;;;19.65;100.00;98669.63;5024544;28;20040;-79
2023/08/01 09:57:59;;;;;;;7.50;2.67;;;;;;;19.14;100.00;98580.38;5010202;28;20450;-79
2023/08/01 10:00:28;;;;;;;;;;;;;;;18.50;100.00;98627.59;5006749;28;20129;-81
2023/08/01 10:02:57;;;;;;;4.55;2.90;;;;;;;18.62;100.00;98811.13;5009123;28;19921;-79
2023/08/01 10:05:23;;;;;;;4.68;2.33;;;;;;;18.54;100.00;98815.13;5025055;28;20018;-78
2023/08/01 10:07:53;;;;;;;6.05;2.95;;;;;;;18.55;100.00;98828.38;5004790;28;20442;-78
2023/08/01 10:10:18;;;;;;;7.97;2.55;;;;;;;18.25;100.00;98757.94;5023466;28;20026;-78
2023/08/01 10:12:47;;;;;;;4.20;2.35;;;;;;;18.43;100.00;98803.44;5003936;28;20018;-81
2023/08/01 10:15:15;;;;;;;7.75;2.65;;;;;;;18.79;100.00;98884.75;5006477;28;20034;-79
2023/08/01 10:17:41;;;;;;;5.90;3.15;;;;;;;19.03;100.00;98860.00;5007179;28;20021;-78
2023/08/01 10:20:07;;;;;;;6.57;2.97;;;;;;;19.18;100.00;98830.31;5028388;28;20057;-78
2023/08/01 10:22:33;;;;;;;;;;;;;;;19.17;100.00;98807.03;5011260;28;20025;-78
2023/08/01 10:24:58;;;;;;;5.82;2.42;;;;;;;19.75;100.00;98721.09;5016557;28;19960;-78
2023/08/01 10:27:25;;;;;;;8.25;2.65;;;;;;;20.26;100.00;98819.63;5029062;28;20101;-78
2023/08/01 10:30:01;;;;;;;10.07;2.53;;;;;;;21.61;100.00;98586.19;5016144;28;20037;-78
2023/08/01 10:32:38;;;;;;;5.00;2.00;;;;;;;21.21;100.00;98493.19;5022350;28;20510;-77
2023/08/01 10:35:05;;;;;;;7.95;2.67;;;;;;;20.61;100.00;98586.44;5011698;28;20537;-81
2023/08/01 10:37:40;;;;;;;3.67;1.88;;;;;;;20.39;100.00;98634.78;5002509;28;20108;-79
2023/08/01 10:40:07;;;;;;;6.53;2.63;;;;;;;20.08;100.00;98617.84;5015419;28;20065;-77
2023/08/01 10:42:43;;;;;;;6.85;2.35;;;;;;;19.30;100.00;98692.09;5010543;28;20088;-79
2023/08/01 10:45:29;;;;;;;3.42;1.40;;;;;;;18.35;100.00;98568.91;5004962;28;20042;-79
2023/08/01 10:48:06;;;;;;;2.88;0.93;;;;;;;17.88;100.00;98421.38;5008434;28;20404;-79
2023/08/01 10:50:32;;;;;;;3.45;0.82;;;;;;;17.65;100.00;98544.88;5023589;28;20034;-79
2023/08/01 10:53:08;;;;;;;1.27;0.90;;;;;;;17.14;100.00;98504.13;5014487;28;20042;-77
2023/08/01 10:55:46;;;;;;;2.47;1.38;;;;;;;16.88;100.00;98745.69;5025738;28;20326;-77
2023/08/01 10:58:12;;;;;;;3.17;1.20;;;;;;;16.58;100.00;98840.41;5013162;28;20572;-78
2023/08/01 11:00:38;;;;;;;4.28;2.00;;;;;;;16.67;100.00;98949.38;5012924;28;20108;-78
2023/08/01 11:03:04;;;;;;;5.65;1.40;;;;;;;16.75;100.00;99005.53;5012552;28;20556;-78
2023/08/01 11:05:29;;;;;;;8.35;1.45;;;;;;;16.39;100.00;99013.03;5010254;28;20112;-79
2023/08/01 11:07:56;;;;;;;2.60;1.50;;;;;;;16.24;100.00;99036.97;5010392;28;20067;-77
2023/08/01 11:10:23;;;;;;;10.23;2.28;;;;;;;16.28;100.00;99043.53;5023207;28;20053;-76
2023/08/01 11:12:49;;;;;;;4.88;2.20;;;;;;;16.21;100.00;99032.09;5011996;28;20609;-78
2023/08/01 11:15:15;;;;;;;5.25;2.05;;;;;;;15.90;100.00;99012.66;5010415;28;20112;-83
2023/08/01 11:17:42;;;;;;;5.55;2.60;;;;;;;16.21;100.00;99057.13;5006809;28;20073;-81
2023/08/01 11:20:09;;;;;;;5.03;1.58;;;;;;;16.49;100.00;99049.28;5009086;28;20027;-78